createdAt,value
2018-04-26T00:01:37.531Z,3.00
2018-04-26T00:04:10.233Z,3.63
2018-04-26T00:06:37.802Z,4.40
2018-04-26T00:09:05.307Z,5.07
2018-04-26T00:11:32.890Z,4.90
2018-04-26T00:14:00.465Z,3.23
2018-04-26T00:16:28.645Z,4.37
2018-04-26T00:18:58.232Z,3.47
2018-04-26T00:21:30.500Z,5.33
2018-04-26T00:23:58.077Z,4.10
2018-04-26T00:26:25.634Z,4.27
2018-04-26T00:28:53.160Z,4.43
2018-04-26T00:31:20.767Z,5.30
2018-04-26T00:33:49.703Z,3.93
2018-04-26T00:36:19.340Z,4.53
2018-04-26T00:38:51.239Z,4.93
2018-04-26T00:41:18.743Z,4.90
2018-04-26T00:43:46.336Z,4.33
2018-04-26T00:46:13.868Z,4.70
2018-04-26T00:48:41.455Z,5.77
2018-04-26T00:51:11.380Z,5.37
2018-04-26T00:53:38.953Z,5.10
2018-04-26T00:56:07.015Z,4.67
2018-04-26T00:58:34.547Z,4.43
2018-04-26T01:01:02.104Z,4.23
2018-04-26T01:03:29.691Z,4.17
2018-04-26T01:05:57.258Z,5.37
2018-04-26T01:08:29.683Z,3.87
2018-04-26T01:10:58.388Z,3.77
2018-04-26T01:13:27.171Z,3.30
2018-04-26T01:15:54.691Z,3.07
2018-04-26T01:18:22.192Z,3.63
2018-04-26T01:20:49.731Z,4.13
2018-04-26T01:23:17.259Z,3.83
2018-04-26T01:25:47.240Z,3.97
2018-04-26T01:28:17.439Z,4.73
2018-04-26T01:30:47.389Z,4.13
2018-04-26T01:33:14.932Z,4.27
2018-04-26T01:35:42.460Z,3.83
2018-04-26T01:38:11.412Z,3.63
2018-04-26T01:40:38.955Z,5.20
2018-04-26T01:43:07.681Z,3.78
2018-04-26T01:45:37.956Z,3.83
2018-04-26T01:48:10.546Z,3.60
2018-04-26T01:50:38.983Z,4.20
2018-04-26T01:53:06.536Z,3.73
2018-04-26T01:55:34.179Z,4.40
2018-04-26T01:58:01.711Z,4.30
2018-04-26T02:00:30.832Z,4.40
2018-04-26T02:02:58.928Z,4.00
2018-04-26T02:05:27.532Z,4.47
2018-04-26T02:07:55.079Z,4.30
2018-04-26T02:10:22.614Z,4.30
2018-04-26T02:12:50.136Z,4.43
2018-04-26T02:15:17.688Z,4.57
2018-04-26T02:17:45.752Z,4.80
2018-04-26T02:20:14.616Z,4.32
2018-04-26T02:22:43.090Z,4.23
2018-04-26T02:25:10.619Z,4.43
2018-04-26T02:27:38.168Z,4.10
2018-04-26T02:30:05.700Z,4.60
2018-04-26T02:32:33.343Z,4.10
2018-04-26T02:35:01.996Z,5.10
2018-04-26T02:37:35.943Z,4.57
2018-04-26T02:40:06.343Z,3.77
2018-04-26T02:42:33.903Z,3.67
2018-04-26T02:45:01.456Z,4.23
2018-04-26T02:47:28.971Z,3.83
2018-04-26T02:49:56.605Z,4.05
2018-04-26T02:52:25.849Z,4.40
2018-04-26T02:54:57.686Z,3.40
2018-04-26T02:57:26.200Z,3.50
2018-04-26T02:59:53.788Z,4.00
2018-04-26T03:02:21.292Z,3.93
2018-04-26T03:04:48.870Z,4.33
2018-04-26T03:07:16.452Z,4.50
2018-04-26T03:09:44.241Z,4.82
2018-04-26T03:12:13.277Z,5.30
2018-04-26T03:14:43.312Z,3.73
2018-04-26T03:17:10.843Z,4.13
2018-04-26T03:19:38.394Z,4.70
2018-04-26T03:22:06.003Z,3.90
2018-04-26T03:24:33.567Z,4.67
2018-04-26T03:30:15.125Z,4.28
2018-04-26T03:32:46.321Z,4.00
2018-04-26T03:35:13.871Z,3.60
2018-04-26T03:37:41.386Z,4.17
2018-04-26T03:40:08.947Z,3.63
2018-04-26T03:42:36.479Z,3.30
2018-04-26T03:45:04.180Z,4.80
2018-04-26T03:47:33.274Z,3.53
2018-04-26T03:50:03.157Z,3.93
2018-04-26T03:52:30.699Z,3.53
2018-04-26T03:54:58.296Z,4.07
2018-04-26T03:57:25.867Z,3.93
2018-04-26T04:00:06.029Z,4.67
2018-04-26T04:02:47.046Z,2.33
2018-04-26T04:08:28.604Z,4.40
2018-04-26T04:11:05.947Z,3.47
2018-04-26T04:13:33.502Z,4.00
2018-04-26T04:16:01.106Z,4.43
2018-04-26T04:18:30.052Z,2.90
2018-04-26T04:20:58.257Z,4.03
2018-04-26T04:23:27.332Z,4.17
2018-04-26T04:25:54.845Z,3.10
2018-04-26T04:28:22.400Z,3.77
2018-04-26T04:30:49.911Z,3.43
2018-04-26T04:33:17.565Z,3.23
2018-04-26T04:35:45.305Z,3.63
2018-04-26T04:38:13.942Z,3.63
2018-04-26T04:40:42.316Z,3.73
2018-04-26T04:43:12.738Z,3.53
2018-04-26T04:45:40.283Z,3.78
2018-04-26T04:48:07.883Z,3.28
2018-04-26T04:50:35.425Z,2.95
2018-04-26T04:53:03.012Z,4.83
2018-04-26T04:55:31.404Z,3.67
2018-04-26T04:58:05.728Z,3.30
2018-04-26T05:00:34.361Z,4.40
2018-04-26T05:03:01.923Z,4.07
2018-04-26T05:05:29.472Z,4.25
2018-04-26T05:07:57.019Z,3.58
2018-04-26T05:10:28.210Z,4.07
2018-04-26T05:12:58.431Z,4.47
2018-04-26T05:15:26.915Z,3.70
2018-04-26T05:17:55.608Z,3.27
2018-04-26T05:20:23.123Z,4.40
2018-04-26T05:22:50.716Z,4.17
2018-04-26T05:25:18.387Z,3.50
2018-04-26T05:27:46.111Z,3.28
2018-04-26T05:30:17.769Z,3.20
2018-04-26T05:32:45.763Z,3.75
2018-04-26T05:35:14.053Z,3.70
2018-04-26T05:37:41.598Z,3.80
2018-04-26T05:40:09.155Z,3.05
2018-04-26T05:42:36.711Z,3.65
2018-04-26T05:45:05.276Z,3.60
2018-04-26T05:47:35.436Z,4.57
2018-04-26T05:50:03.634Z,4.37
2018-04-26T05:52:31.171Z,4.50
2018-04-26T05:54:58.783Z,3.57
2018-04-26T05:57:26.310Z,4.15
2018-04-26T05:59:53.943Z,3.67
2018-04-26T06:02:25.943Z,3.33
2018-04-26T06:04:53.972Z,3.50
2018-04-26T06:07:25.961Z,3.73
2018-04-26T06:09:53.501Z,3.50
2018-04-26T06:12:21.074Z,3.53
2018-04-26T06:14:48.643Z,3.87
2018-04-26T06:17:16.343Z,4.27
2018-04-26T06:19:44.064Z,4.00
2018-04-26T06:22:14.189Z,3.60
2018-04-26T06:24:42.667Z,3.23
2018-04-26T06:27:10.219Z,2.60
2018-04-26T06:29:37.791Z,3.47
2018-04-26T06:32:05.350Z,3.80
2018-04-26T06:34:32.943Z,2.73
2018-04-26T06:42:15.409Z,3.40
2018-04-26T06:44:42.939Z,3.07
2018-04-26T06:47:10.515Z,2.70
2018-04-26T06:49:38.187Z,3.28
2018-04-26T06:52:05.760Z,3.53
2018-04-26T06:54:34.679Z,3.23
2018-04-26T06:57:04.492Z,3.17
2018-04-26T07:02:08.797Z,2.37
2018-04-26T07:04:36.375Z,2.57
2018-04-26T07:07:04.059Z,3.20
2018-04-26T07:09:32.360Z,2.90
2018-04-26T07:12:02.571Z,3.30
2018-04-26T07:14:31.071Z,3.87
2018-04-26T07:16:59.561Z,2.57
2018-04-26T07:19:27.115Z,2.73
2018-04-26T07:21:54.864Z,2.77
2018-04-26T07:24:22.375Z,3.13
2018-04-26T07:26:50.027Z,2.87
2018-04-26T07:29:22.607Z,3.20
2018-04-26T07:37:01.604Z,3.53
2018-04-26T07:39:29.154Z,4.23
2018-04-26T07:41:56.799Z,3.13
2018-04-26T07:50:02.133Z,3.07
2018-04-26T07:52:34.658Z,2.77
2018-04-26T07:55:02.307Z,3.33
2018-04-26T07:57:29.929Z,2.57
2018-04-26T07:59:57.525Z,3.40
2018-04-26T08:02:27.744Z,3.07
2018-04-26T08:10:29.549Z,2.57
2018-04-26T08:12:57.173Z,2.67
2018-04-26T08:15:24.712Z,3.77
2018-04-26T08:17:53.275Z,2.63
2018-04-26T08:20:26.027Z,2.60
2018-04-26T08:28:15.090Z,2.40
2018-04-26T08:30:43.602Z,3.00
2018-04-26T08:33:11.182Z,2.83
2018-04-26T08:35:42.053Z,2.47
2018-04-26T08:46:34.033Z,2.60
2018-04-26T08:49:01.686Z,2.30
2018-04-26T08:51:29.255Z,3.17
2018-04-26T09:04:29.491Z,2.13
2018-04-26T09:06:57.143Z,2.70
2018-04-26T09:09:24.723Z,3.40
2018-04-26T09:19:41.074Z,2.77
2018-04-26T09:22:08.623Z,3.10
2018-04-26T09:24:36.219Z,2.50
2018-04-26T09:27:03.763Z,2.43
2018-04-26T09:29:34.602Z,2.20
2018-04-26T09:34:35.032Z,3.23
2018-04-26T09:37:02.639Z,3.10
2018-04-26T09:39:30.289Z,3.00
2018-04-26T09:41:57.813Z,3.33
2018-04-26T09:44:25.501Z,2.63
2018-04-26T09:46:55.549Z,2.80
2018-04-26T09:49:23.836Z,2.73
2018-04-26T09:51:54.755Z,2.67
2018-04-26T09:54:22.379Z,2.70
2018-04-26T09:56:50.011Z,2.80
2018-04-26T09:59:18.227Z,2.80
2018-04-26T10:01:45.872Z,3.93
2018-04-26T10:04:15.610Z,3.30
2018-04-26T10:06:50.531Z,2.77
2018-04-26T10:09:19.160Z,2.50
2018-04-26T10:11:46.779Z,3.53
2018-04-26T10:14:14.352Z,3.63
2018-04-26T10:16:41.948Z,2.13
2018-04-26T10:19:09.541Z,3.37
2018-04-26T10:21:39.862Z,2.80
2018-04-26T10:26:49.853Z,2.73
2018-04-26T10:29:17.971Z,2.60
2018-04-26T10:31:45.524Z,2.83
2018-04-26T10:34:13.147Z,2.57
2018-04-26T10:36:41.715Z,2.60
2018-04-26T10:39:10.087Z,2.10
2018-04-26T10:41:43.447Z,2.40
2018-04-26T10:44:11.785Z,2.17
2018-04-26T10:46:39.367Z,2.37
2018-04-26T10:49:07.850Z,1.20
2018-04-26T10:51:35.441Z,2.17
2018-04-26T10:54:03.072Z,1.80
2018-04-26T10:56:34.766Z,3.13
2018-04-26T10:59:06.543Z,2.50
2018-04-26T11:04:19.537Z,3.40
2018-04-26T11:06:47.208Z,2.60
2018-04-26T11:09:14.836Z,2.90
2018-04-26T11:11:43.623Z,2.77
2018-04-26T11:14:11.227Z,3.50
2018-04-26T11:16:42.095Z,2.50
2018-04-26T11:19:10.757Z,3.13
2018-04-26T11:21:39.092Z,2.23
2018-04-26T11:24:06.626Z,2.57
2018-04-26T11:26:35.073Z,2.27
2018-04-26T11:29:07.258Z,2.57
2018-04-26T11:31:37.994Z,2.57
2018-04-26T11:34:07.359Z,2.10
2018-04-26T11:36:35.463Z,2.83
2018-04-26T11:39:03.124Z,3.13
2018-04-26T11:41:30.752Z,2.17
2018-04-26T11:43:58.344Z,2.10
2018-04-26T11:46:27.628Z,2.40
2018-04-26T11:48:58.541Z,2.27
2018-04-26T11:54:13.744Z,2.83
2018-04-26T11:56:44.875Z,2.50
2018-04-26T11:59:12.462Z,2.40
2018-04-26T12:01:40.035Z,2.97
2018-04-26T12:06:45.938Z,2.03
2018-04-26T12:09:14.852Z,1.70
2018-04-26T12:11:42.528Z,2.50
2018-04-26T12:14:10.086Z,1.80
2018-04-26T12:16:37.646Z,2.30
2018-04-26T12:19:05.210Z,2.00
2018-04-26T12:24:11.571Z,2.50
2018-04-26T12:26:43.495Z,2.03
2018-04-26T12:29:11.078Z,1.90
2018-04-26T12:31:38.705Z,2.80
2018-04-26T12:34:06.255Z,2.13
2018-04-26T12:36:33.881Z,3.07
2018-04-26T12:39:03.936Z,2.37
2018-04-26T12:41:33.885Z,1.97
2018-04-26T12:44:05.744Z,2.47
2018-04-26T12:46:33.335Z,2.30
2018-04-26T12:49:00.918Z,3.10
2018-04-26T12:51:28.591Z,2.43
2018-04-26T12:53:56.152Z,2.03
2018-04-26T12:56:30.199Z,2.63
2018-04-26T12:59:02.767Z,2.27
2018-04-26T13:01:34.637Z,2.37
2018-04-26T13:04:02.172Z,2.33
2018-04-26T13:06:29.717Z,1.90
2018-04-26T13:08:57.237Z,1.70
2018-04-26T13:11:24.852Z,1.20
2018-04-26T13:13:53.592Z,2.10
2018-04-26T13:16:23.669Z,1.63
2018-04-26T13:18:51.368Z,2.43
2018-04-26T13:21:18.922Z,2.37
2018-04-26T13:23:46.507Z,1.77
2018-04-26T13:26:14.113Z,1.83
2018-04-26T13:28:41.876Z,1.80
2018-04-26T13:31:13.847Z,2.17
2018-04-26T13:33:42.014Z,2.10
2018-04-26T13:36:11.112Z,2.10
2018-04-26T13:38:38.740Z,2.20
2018-04-26T13:41:06.408Z,1.67
2018-04-26T13:43:33.950Z,2.17
2018-04-26T13:46:01.548Z,1.97
2018-04-26T13:48:30.434Z,2.37
2018-04-26T13:50:59.431Z,2.27
2018-04-26T13:53:27.318Z,1.60
2018-04-26T13:55:54.849Z,1.70
2018-04-26T13:58:22.514Z,1.73
2018-04-26T14:00:50.117Z,2.40
2018-04-26T14:03:17.667Z,2.17
2018-04-26T14:05:46.464Z,1.77
2018-04-26T14:08:15.739Z,1.50
2018-04-26T14:10:43.447Z,1.77
2018-04-26T14:13:11.067Z,2.33
2018-04-26T14:15:38.601Z,1.83
2018-04-26T14:18:06.139Z,1.87
2018-04-26T14:20:33.810Z,1.67
2018-04-26T14:23:03.867Z,1.87
2018-04-26T14:25:31.652Z,1.63
2018-04-26T14:27:59.311Z,1.80
2018-04-26T14:30:26.815Z,1.90
2018-04-26T14:32:54.383Z,1.63
2018-04-26T14:35:21.955Z,1.90
2018-04-26T14:37:49.611Z,1.50
2018-04-26T14:40:19.868Z,2.03
2018-04-26T14:42:50.393Z,1.67
2018-04-26T14:45:26.405Z,2.10
2018-04-26T14:47:54.095Z,2.13
2018-04-26T14:50:21.651Z,2.03
2018-04-26T14:52:49.226Z,1.80
2018-04-26T14:55:16.917Z,1.30
2018-04-26T14:57:50.008Z,1.60
2018-04-26T15:00:19.722Z,1.80
2018-04-26T15:02:50.055Z,2.00
2018-04-26T15:05:17.620Z,1.73
2018-04-26T15:07:45.240Z,2.07
2018-04-26T15:10:13.823Z,2.40
2018-04-26T15:15:18.101Z,1.73
2018-04-26T15:17:46.492Z,1.90
2018-04-26T15:20:17.841Z,2.47
2018-04-26T15:22:45.363Z,2.27
2018-04-26T15:25:12.919Z,2.10
2018-04-26T15:27:40.439Z,2.17
2018-04-26T15:30:08.041Z,1.87
2018-04-26T15:32:35.900Z,1.87
2018-04-26T15:35:03.468Z,1.87
2018-04-26T15:37:32.378Z,1.97
2018-04-26T15:40:00.627Z,2.63
2018-04-26T15:42:28.182Z,2.27
2018-04-26T15:44:55.750Z,2.43
2018-04-26T15:47:23.380Z,2.07
2018-04-26T15:49:51.921Z,2.30
2018-04-26T15:52:31.181Z,2.23
2018-04-26T15:58:32.222Z,2.87
2018-04-26T16:01:12.039Z,2.60
2018-04-26T16:03:51.469Z,2.50
2018-04-26T16:06:42.540Z,2.70
2018-04-26T16:09:22.840Z,2.43
2018-04-26T16:12:06.182Z,2.83
2018-04-26T16:14:45.491Z,2.43
2018-04-26T16:17:30.574Z,2.03
2018-04-26T16:20:15.614Z,2.37
2018-04-26T16:23:06.012Z,2.60
2018-04-26T16:25:49.874Z,2.67
2018-04-26T16:28:34.920Z,1.40
2018-04-26T16:31:20.147Z,1.77
2018-04-26T16:34:05.147Z,3.00
2018-04-26T16:36:44.589Z,2.27
2018-04-26T16:39:27.204Z,2.40
2018-04-26T16:41:55.793Z,2.43
2018-04-26T16:44:23.527Z,2.30
2018-04-26T16:46:52.068Z,2.03
2018-04-26T16:49:20.513Z,2.40
2018-04-26T16:51:48.038Z,2.10
2018-04-26T16:54:15.631Z,2.60
2018-04-26T16:56:43.649Z,3.20
2018-04-26T16:59:11.424Z,2.50
2018-04-26T17:01:39.026Z,2.50
2018-04-26T17:04:06.691Z,2.40
2018-04-26T17:06:34.331Z,2.63
2018-04-26T17:09:01.826Z,2.27
2018-04-26T17:11:29.387Z,2.40
2018-04-26T17:14:01.112Z,2.87
2018-04-26T17:16:30.854Z,2.43
2018-04-26T17:18:59.741Z,2.20
2018-04-26T17:21:27.307Z,2.37
2018-04-26T17:23:54.870Z,2.47
2018-04-26T17:26:22.416Z,2.70
2018-04-26T17:28:49.998Z,2.67
2018-04-26T17:31:17.953Z,2.60
2018-04-26T17:33:45.683Z,2.40
2018-04-26T17:36:13.768Z,2.30
2018-04-26T17:38:41.308Z,2.50
2018-04-26T17:41:08.889Z,3.10
2018-04-26T17:43:36.425Z,3.43
2018-04-26T17:46:03.991Z,3.57
2018-04-26T17:48:31.631Z,2.97
2018-04-26T17:50:59.179Z,2.67
2018-04-26T17:53:26.791Z,2.77
2018-04-26T17:55:54.356Z,2.53
2018-04-26T17:58:21.969Z,2.40
2018-04-26T18:00:49.470Z,2.70
2018-04-26T18:03:17.033Z,3.60
2018-04-26T18:05:44.702Z,2.37
2018-04-26T18:08:12.528Z,2.90
2018-04-26T18:10:41.739Z,2.40
2018-04-26T18:13:10.529Z,2.90
2018-04-26T18:15:38.112Z,3.40
2018-04-26T18:18:05.627Z,2.63
2018-04-26T18:20:33.196Z,2.37
2018-04-26T18:23:01.655Z,2.87
2018-04-26T18:25:31.771Z,2.93
2018-04-26T18:28:03.749Z,3.13
2018-04-26T18:30:33.846Z,3.77
2018-04-26T18:33:01.476Z,2.63
2018-04-26T18:35:29.123Z,2.23
2018-04-26T18:37:56.735Z,2.10
2018-04-26T18:40:25.996Z,2.53
2018-04-26T18:42:54.159Z,3.23
2018-04-26T18:45:22.685Z,3.17
2018-04-26T18:47:51.895Z,2.27
2018-04-26T18:50:19.431Z,2.93
2018-04-26T18:52:46.966Z,2.77
2018-04-26T18:55:14.526Z,3.23
2018-04-26T18:57:43.521Z,2.73
2018-04-26T19:00:13.777Z,3.23
2018-04-26T19:02:41.523Z,2.43
2018-04-26T19:05:09.044Z,3.30
2018-04-26T19:07:36.614Z,3.07
2018-04-26T19:10:04.136Z,2.67
2018-04-26T19:12:31.730Z,3.00
2018-04-26T19:14:59.382Z,2.87
2018-04-26T19:17:27.081Z,3.03
2018-04-26T19:19:55.538Z,3.40
2018-04-26T19:22:23.123Z,3.37
2018-04-26T19:24:50.680Z,3.43
2018-04-26T19:27:18.203Z,2.87
2018-04-26T19:29:45.833Z,2.77
2018-04-26T19:32:13.630Z,2.63
2018-04-26T19:34:41.956Z,2.40
2018-04-26T19:37:09.669Z,2.50
2018-04-26T19:39:37.257Z,2.53
2018-04-26T19:42:04.771Z,2.83
2018-04-26T19:44:32.338Z,2.87
2018-04-26T19:46:59.912Z,2.90
2018-04-26T19:49:27.503Z,3.00
2018-04-26T19:51:55.229Z,3.03
2018-04-26T19:54:23.868Z,2.50
2018-04-26T19:56:51.416Z,2.00
2018-04-26T19:59:18.950Z,2.13
2018-04-26T20:01:46.495Z,2.03
2018-04-26T20:04:14.100Z,2.77
2018-04-26T20:06:41.960Z,3.53
2018-04-26T20:09:10.545Z,3.33
2018-04-26T20:11:38.519Z,2.67
2018-04-26T20:14:06.075Z,2.83
2018-04-26T20:16:34.714Z,2.80
2018-04-26T20:19:02.255Z,2.63
2018-04-26T20:21:29.810Z,2.93
2018-04-26T20:23:57.761Z,2.90
2018-04-26T20:26:26.289Z,2.70
2018-04-26T20:28:54.007Z,3.07
2018-04-26T20:31:21.599Z,2.83
2018-04-26T20:33:49.171Z,2.70
2018-04-26T20:36:16.721Z,2.90
2018-04-26T20:38:44.288Z,3.00
2018-04-26T20:41:11.851Z,3.00
2018-04-26T20:43:39.472Z,4.67
2018-04-26T20:46:07.877Z,3.40
2018-04-26T20:48:40.906Z,3.27
2018-04-26T20:51:08.429Z,3.03
2018-04-26T20:53:35.975Z,2.67
2018-04-26T20:56:03.516Z,3.00
2018-04-26T20:58:31.145Z,3.57
2018-04-26T21:00:59.513Z,3.10
2018-04-26T21:03:27.136Z,4.10
2018-04-26T21:05:54.837Z,3.70
2018-04-26T21:08:22.401Z,3.63
2018-04-26T21:10:49.930Z,3.30
2018-04-26T21:13:17.483Z,3.40
2018-04-26T21:15:45.348Z,3.80
2018-04-26T21:18:12.922Z,3.30
2018-04-26T21:20:40.532Z,3.57
2018-04-26T21:23:08.239Z,3.00
2018-04-26T21:25:35.771Z,3.47
2018-04-26T21:28:03.302Z,3.57
2018-04-26T21:30:30.864Z,3.53
2018-04-26T21:32:59.324Z,3.30
2018-04-26T21:35:27.045Z,3.87
2018-04-26T21:37:55.268Z,3.43
2018-04-26T21:40:22.908Z,3.10
2018-04-26T21:42:50.419Z,2.93
2018-04-26T21:45:17.930Z,3.37
2018-04-26T21:47:45.481Z,2.87
2018-04-26T21:50:18.490Z,2.30
2018-04-26T21:52:51.811Z,3.20
2018-04-26T21:55:26.079Z,2.60
2018-04-26T21:57:59.421Z,3.20
2018-04-26T22:00:32.536Z,2.60
2018-04-26T22:02:59.494Z,3.10
2018-04-26T22:05:27.962Z,3.23
2018-04-26T22:07:55.622Z,3.80
2018-04-26T22:10:24.285Z,4.03
2018-04-26T22:12:51.921Z,3.80
2018-04-26T22:15:19.545Z,4.13
2018-04-26T22:17:47.079Z,3.60
2018-04-26T22:20:14.962Z,3.80
2018-04-26T22:22:42.563Z,3.60
2018-04-26T22:25:10.255Z,3.63
2018-04-26T22:27:38.047Z,3.23
2018-04-26T22:30:05.801Z,3.77
2018-04-26T22:32:33.494Z,3.47
2018-04-26T22:35:01.038Z,3.57
2018-04-26T22:37:28.554Z,3.50
2018-04-26T22:39:56.083Z,2.97
2018-04-26T22:42:23.782Z,3.37
2018-04-26T22:44:51.461Z,3.43
2018-04-26T22:47:19.262Z,3.27
2018-04-26T22:49:46.880Z,3.10
2018-04-26T22:52:14.415Z,3.57
2018-04-26T22:54:41.951Z,4.00
2018-04-26T22:57:09.495Z,4.37
2018-04-26T22:59:37.887Z,3.70
2018-04-26T23:02:06.263Z,3.97
2018-04-26T23:04:33.987Z,3.80
2018-04-26T23:07:01.921Z,3.90
2018-04-26T23:09:29.458Z,3.53
2018-04-26T23:11:57.008Z,3.70
2018-04-26T23:14:24.629Z,3.63
2018-04-26T23:16:52.258Z,4.63
2018-04-26T23:19:19.931Z,3.73
2018-04-26T23:21:47.479Z,4.07
2018-04-26T23:24:17.523Z,3.30
2018-04-26T23:26:45.052Z,3.17
2018-04-26T23:29:12.609Z,3.30
2018-04-26T23:31:40.216Z,3.07
2018-04-26T23:42:54.907Z,3.37
2018-04-26T23:45:22.485Z,3.20
2018-04-26T23:47:50.064Z,2.90
2018-04-26T23:59:26.876Z,2.13
